createdAt,value
2019-05-23T00:00:41.182Z,11.17
2019-05-23T00:03:27.516Z,12.23
2019-05-23T00:06:12.995Z,10.47
2019-05-23T00:08:57.433Z,10.87
2019-05-23T00:11:44.864Z,8.80
2019-05-23T00:14:39.754Z,7.57
2019-05-23T00:17:05.443Z,10.53
2019-05-23T00:19:30.635Z,13.93
2019-05-23T00:21:56.021Z,9.47
2019-05-23T00:24:22.298Z,9.47
2019-05-23T00:26:47.884Z,12.57
2019-05-23T00:29:14.977Z,12.07
2019-05-23T00:31:58.670Z,12.83
2019-05-23T00:34:25.716Z,11.73
2019-05-23T00:36:51.402Z,10.47
2019-05-23T00:39:17.411Z,14.90
2019-05-23T00:41:42.983Z,12.13
2019-05-23T00:44:08.485Z,12.27
2019-05-23T00:46:33.867Z,13.63
2019-05-23T00:49:00.345Z,11.10
2019-05-23T00:51:25.917Z,10.37
2019-05-23T00:53:52.178Z,11.07
2019-05-23T00:56:17.461Z,14.77
2019-05-23T00:58:42.681Z,13.23
2019-05-23T01:01:09.034Z,10.30
2019-05-23T01:03:35.302Z,9.57
2019-05-23T01:06:01.296Z,12.77
2019-05-23T01:08:26.834Z,9.47
2019-05-23T01:10:53.880Z,10.93
2019-05-23T01:13:19.888Z,9.07
2019-05-23T01:15:45.230Z,13.20
2019-05-23T01:18:11.862Z,11.00
2019-05-23T01:21:04.549Z,12.10
2019-05-23T01:23:33.170Z,8.93
2019-05-23T01:25:58.573Z,13.37
2019-05-23T01:28:23.782Z,12.53
2019-05-23T01:30:50.594Z,9.73
2019-05-23T01:33:16.723Z,10.93
2019-05-23T01:35:42.681Z,11.10
2019-05-23T01:38:08.086Z,11.90
2019-05-23T01:40:33.281Z,12.27
2019-05-23T01:42:59.959Z,13.10
2019-05-23T01:45:26.526Z,16.83
2019-05-23T01:47:52.127Z,10.57
2019-05-23T01:50:20.845Z,12.60
2019-05-23T01:52:46.743Z,16.07
2019-05-23T01:55:14.357Z,13.63
2019-05-23T01:57:40.496Z,16.50
2019-05-23T02:00:11.418Z,10.80
2019-05-23T02:02:37.773Z,12.97
2019-05-23T02:05:03.343Z,12.83
2019-05-23T02:07:30.290Z,14.07
2019-05-23T02:09:55.699Z,11.20
2019-05-23T02:12:21.075Z,9.97
2019-05-23T02:14:46.670Z,12.00
2019-05-23T02:17:12.974Z,9.43
2019-05-23T02:19:39.071Z,9.80
2019-05-23T02:22:04.504Z,10.80
2019-05-23T02:24:29.888Z,10.63
2019-05-23T02:26:56.119Z,13.73
2019-05-23T02:29:22.190Z,15.53
2019-05-23T02:31:47.323Z,10.30
2019-05-23T02:34:13.780Z,12.27
2019-05-23T02:36:39.529Z,8.73
2019-05-23T02:39:24.041Z,13.33
2019-05-23T02:42:14.158Z,13.90
2019-05-23T02:44:41.204Z,16.67
2019-05-23T02:47:26.147Z,11.23
2019-05-23T02:49:51.767Z,15.77
2019-05-23T02:52:28.647Z,9.50
2019-05-23T02:54:54.170Z,11.07
2019-05-23T02:57:21.907Z,15.27
2019-05-23T02:59:52.095Z,11.33
2019-05-23T03:02:43.544Z,16.00
2019-05-23T03:05:12.108Z,13.40
2019-05-23T03:07:38.863Z,16.17
2019-05-23T03:10:05.608Z,11.63
2019-05-23T03:12:31.996Z,14.03
2019-05-23T03:15:01.102Z,13.13
2019-05-23T03:17:27.875Z,14.73
2019-05-23T03:19:55.902Z,15.80
2019-05-23T03:22:31.745Z,12.53
2019-05-23T03:24:59.026Z,17.47
2019-05-23T03:27:25.420Z,16.50
2019-05-23T03:29:52.010Z,14.57
2019-05-23T03:32:38.670Z,18.50
2019-05-23T03:35:26.495Z,15.43
2019-05-23T03:37:52.132Z,17.67
2019-05-23T03:40:18.541Z,16.30
2019-05-23T03:42:43.931Z,15.33
2019-05-23T03:45:13.158Z,15.20
2019-05-23T03:47:38.543Z,17.70
2019-05-23T03:50:05.391Z,18.53
2019-05-23T03:52:32.391Z,13.87
2019-05-23T03:54:57.596Z,14.47
2019-05-23T03:57:25.803Z,15.63
2019-05-23T03:59:50.590Z,13.80
2019-05-23T04:02:18.239Z,10.03
2019-05-23T04:04:43.352Z,18.93
2019-05-23T04:07:10.143Z,11.97
2019-05-23T04:09:36.898Z,13.53
2019-05-23T04:12:03.603Z,11.80
2019-05-23T04:14:28.826Z,14.33
2019-05-23T04:16:54.003Z,12.83
2019-05-23T04:19:19.289Z,12.03
2019-05-23T04:21:44.778Z,12.97
2019-05-23T04:24:09.869Z,12.13
2019-05-23T04:26:34.989Z,12.13
2019-05-23T04:29:00.362Z,11.60
2019-05-23T04:31:25.536Z,18.20
2019-05-23T04:33:50.648Z,12.00
2019-05-23T04:36:16.707Z,15.27
2019-05-23T04:38:43.193Z,12.00
2019-05-23T04:41:08.292Z,13.63
2019-05-23T04:43:33.372Z,10.47
2019-05-23T04:45:58.671Z,14.70
2019-05-23T04:48:23.835Z,18.37
2019-05-23T04:50:49.243Z,15.67
2019-05-23T04:53:14.628Z,14.57
2019-05-23T04:55:40.306Z,15.33
2019-05-23T04:58:05.571Z,12.40
2019-05-23T05:00:31.134Z,11.93
2019-05-23T05:02:57.583Z,14.20
2019-05-23T05:05:24.850Z,12.10
2019-05-23T05:07:50.022Z,13.40
2019-05-23T05:10:18.182Z,16.60
2019-05-23T05:12:43.369Z,16.93
2019-05-23T05:15:09.179Z,16.97
2019-05-23T05:17:34.345Z,13.23
2019-05-23T05:19:59.549Z,11.63
2019-05-23T05:22:25.842Z,13.10
2019-05-23T05:24:50.942Z,12.77
2019-05-23T05:27:16.494Z,10.70
2019-05-23T05:29:41.587Z,11.23
2019-05-23T05:32:08.174Z,11.33
2019-05-23T05:34:33.410Z,11.67
2019-05-23T05:36:58.511Z,11.80
2019-05-23T05:39:23.905Z,8.73
2019-05-23T05:41:48.985Z,9.90
2019-05-23T05:44:14.606Z,10.17
2019-05-23T05:46:39.701Z,10.27
2019-05-23T05:49:05.794Z,9.53
2019-05-23T05:51:31.730Z,8.00
2019-05-23T05:53:57.196Z,8.30
2019-05-23T05:56:22.311Z,8.90
2019-05-23T05:58:47.677Z,7.40
2019-05-23T06:01:14.186Z,7.43
2019-05-23T06:03:39.974Z,9.57
2019-05-23T06:06:19.107Z,6.90
2019-05-23T06:08:45.258Z,10.67
2019-05-23T06:11:10.863Z,7.07
2019-05-23T06:13:35.959Z,6.97
2019-05-23T06:16:01.887Z,10.60
2019-05-23T06:18:27.077Z,7.83
2019-05-23T06:20:53.198Z,6.63
2019-05-23T06:23:20.077Z,6.73
2019-05-23T06:25:45.415Z,5.60
2019-05-23T06:28:11.675Z,6.53
2019-05-23T06:30:39.052Z,8.27
2019-05-23T06:33:21.773Z,5.90
2019-05-23T06:35:31.670Z,7.27
2019-05-23T06:37:57.015Z,5.97
2019-05-23T06:40:22.569Z,7.50
2019-05-23T06:42:50.559Z,9.83
2019-05-23T06:45:15.338Z,4.43
2019-05-23T06:47:41.419Z,4.40
2019-05-23T06:50:10.387Z,6.37
2019-05-23T06:52:35.811Z,7.10
2019-05-23T06:55:00.905Z,8.20
2019-05-23T06:57:26.231Z,4.60
2019-05-23T06:59:51.315Z,7.53
2019-05-23T07:02:16.549Z,5.50
2019-05-23T07:04:41.831Z,7.27
2019-05-23T07:07:07.503Z,5.10
2019-05-23T07:09:33.254Z,6.33
2019-05-23T07:11:59.925Z,6.03
2019-05-23T07:14:25.121Z,5.60
2019-05-23T07:16:50.488Z,7.43
2019-05-23T07:19:15.922Z,6.97
2019-05-23T07:21:41.174Z,7.93
2019-05-23T07:24:08.773Z,4.73
2019-05-23T07:26:33.926Z,5.70
2019-05-23T07:28:59.510Z,3.65
2019-05-23T07:31:24.776Z,3.65
2019-05-23T07:34:01.142Z,3.02
2019-05-23T07:36:18.103Z,4.17
2019-05-23T07:38:43.432Z,4.70
2019-05-23T07:41:08.573Z,4.78
2019-05-23T07:43:33.807Z,4.60
2019-05-23T07:46:00.521Z,4.60
2019-05-23T07:48:26.394Z,4.27
2019-05-23T07:50:52.535Z,3.98
2019-05-23T07:53:25.754Z,3.83
2019-05-23T07:55:51.916Z,4.30
2019-05-23T07:58:17.433Z,6.63
2019-05-23T08:00:48.425Z,5.83
2019-05-23T08:03:15.443Z,4.53
2019-05-23T08:05:40.530Z,4.97
2019-05-23T08:08:07.199Z,2.50
2019-05-23T08:10:34.142Z,6.30
2019-05-23T08:13:00.130Z,3.83
2019-05-23T08:15:25.357Z,4.20
2019-05-23T08:17:50.496Z,5.63
2019-05-23T08:20:16.235Z,5.27
2019-05-23T08:22:41.320Z,3.60
2019-05-23T08:25:06.932Z,3.60
2019-05-23T08:27:34.081Z,2.73
2019-05-23T08:30:02.367Z,4.03
2019-05-23T08:32:27.513Z,6.20
2019-05-23T08:34:52.822Z,2.53
2019-05-23T08:37:18.197Z,3.75
2019-05-23T08:39:45.296Z,2.80
2019-05-23T08:42:10.590Z,4.23
2019-05-23T08:44:35.902Z,2.87
2019-05-23T08:47:01.540Z,4.60
2019-05-23T08:49:26.931Z,2.67
2019-05-23T08:51:52.199Z,4.40
2019-05-23T08:54:18.050Z,6.33
2019-05-23T08:56:43.170Z,6.97
2019-05-23T08:59:08.844Z,3.15
2019-05-23T09:01:34.488Z,4.30
2019-05-23T09:04:00.367Z,3.90
2019-05-23T09:06:25.738Z,4.70
2019-05-23T09:08:52.388Z,4.17
2019-05-23T09:11:19.554Z,2.93
2019-05-23T09:13:44.935Z,4.00
2019-05-23T09:16:11.485Z,3.00
2019-05-23T09:18:37.021Z,4.13
2019-05-23T09:21:02.098Z,2.60
2019-05-23T09:23:27.570Z,3.93
2019-05-23T09:25:53.393Z,3.77
2019-05-23T09:28:19.641Z,4.37
2019-05-23T09:30:44.747Z,4.27
2019-05-23T09:33:10.816Z,3.60
2019-05-23T09:35:36.135Z,4.70
2019-05-23T09:38:01.559Z,4.43
2019-05-23T09:40:26.900Z,2.27
2019-05-23T09:42:52.004Z,2.63
2019-05-23T09:45:18.522Z,1.53
2019-05-23T09:47:43.674Z,4.37
2019-05-23T09:50:13.760Z,3.87
2019-05-23T09:52:39.165Z,1.87
2019-05-23T09:55:04.478Z,2.77
2019-05-23T09:57:30.253Z,1.50
2019-05-23T09:59:57.022Z,2.23
2019-05-23T10:02:22.273Z,3.00
2019-05-23T10:04:47.464Z,3.73
2019-05-23T10:07:13.189Z,3.90
2019-05-23T10:09:38.313Z,3.33
2019-05-23T10:12:03.508Z,3.93
2019-05-23T10:14:32.720Z,4.00
2019-05-23T10:16:57.806Z,3.07
2019-05-23T10:19:22.948Z,3.30
2019-05-23T10:21:48.294Z,3.55
2019-05-23T10:24:14.406Z,5.22
2019-05-23T10:26:39.542Z,3.12
2019-05-23T10:29:04.733Z,3.37
2019-05-23T10:31:30.001Z,2.72
2019-05-23T10:33:55.190Z,2.70
2019-05-23T10:36:20.710Z,3.17
2019-05-23T10:38:46.912Z,3.52
2019-05-23T10:41:12.004Z,4.97
2019-05-23T10:43:37.096Z,3.77
2019-05-23T10:46:02.225Z,4.67
2019-05-23T10:48:27.997Z,3.75
2019-05-23T10:50:54.598Z,2.62
2019-05-23T10:53:19.969Z,4.37
2019-05-23T10:55:45.157Z,2.35
2019-05-23T10:58:10.315Z,3.85
2019-05-23T11:00:36.589Z,4.17
2019-05-23T11:03:01.675Z,5.35
2019-05-23T11:05:26.982Z,2.17
2019-05-23T11:07:55.166Z,3.80
2019-05-23T11:10:21.660Z,4.35
2019-05-23T11:12:47.046Z,2.87
2019-05-23T11:15:12.703Z,2.55
2019-05-23T11:17:38.193Z,6.62
2019-05-23T11:20:04.052Z,4.67
2019-05-23T11:22:29.910Z,3.35
2019-05-23T11:24:55.186Z,2.87
2019-05-23T11:27:21.547Z,2.75
2019-05-23T11:29:46.598Z,4.62
2019-05-23T11:32:12.807Z,3.33
2019-05-23T11:34:38.606Z,4.58
2019-05-23T11:37:03.821Z,5.83
2019-05-23T11:39:29.167Z,3.62
2019-05-23T11:41:54.272Z,4.53
2019-05-23T11:44:19.367Z,3.85
2019-05-23T11:46:44.754Z,2.83
2019-05-23T11:49:09.847Z,3.67
2019-05-23T11:51:35.872Z,2.95
2019-05-23T11:54:08.263Z,2.15
2019-05-23T11:56:27.859Z,3.37
2019-05-23T11:58:55.556Z,8.55
2019-05-23T12:01:48.798Z,2.05
2019-05-23T12:04:16.266Z,2.80
2019-05-23T12:06:55.229Z,2.33
2019-05-23T12:09:12.659Z,3.83
2019-05-23T12:11:42.174Z,2.42
2019-05-23T12:14:05.408Z,3.12
2019-05-23T12:16:31.558Z,2.77
2019-05-23T12:18:57.031Z,4.90
2019-05-23T12:21:22.797Z,3.35
2019-05-23T12:23:47.842Z,1.92
2019-05-23T12:26:13.046Z,3.10
2019-05-23T12:28:38.173Z,1.45
2019-05-23T12:31:04.227Z,3.20
2019-05-23T12:33:29.350Z,2.27
2019-05-23T12:35:54.710Z,1.80
2019-05-23T12:38:19.805Z,2.98
2019-05-23T12:40:44.991Z,1.45
2019-05-23T12:43:10.083Z,2.65
2019-05-23T12:45:35.478Z,2.62
2019-05-23T12:48:05.059Z,1.22
2019-05-23T12:50:34.179Z,1.67
2019-05-23T12:52:59.486Z,1.45
2019-05-23T12:55:24.570Z,1.47
2019-05-23T12:57:49.792Z,2.45
2019-05-23T13:00:24.031Z,4.92
2019-05-23T13:02:49.253Z,2.15
2019-05-23T13:05:15.245Z,1.42
2019-05-23T13:07:40.335Z,2.62
2019-05-23T13:10:06.254Z,3.10
2019-05-23T13:12:33.134Z,4.15
2019-05-23T13:14:59.202Z,1.82
2019-05-23T13:17:24.296Z,4.62
2019-05-23T13:19:49.392Z,1.75
2019-05-23T13:22:16.050Z,1.55
2019-05-23T13:24:51.854Z,1.50
2019-05-23T13:27:08.042Z,1.92
2019-05-23T13:29:33.154Z,2.87
2019-05-23T13:31:58.286Z,7.37
2019-05-23T13:34:23.413Z,2.25
2019-05-23T13:36:48.506Z,2.08
2019-05-23T13:39:14.997Z,1.90
2019-05-23T13:41:42.678Z,2.60
2019-05-23T13:44:08.028Z,3.52
2019-05-23T13:46:34.062Z,1.92
2019-05-23T13:48:59.542Z,2.15
2019-05-23T13:51:24.852Z,1.70
2019-05-23T13:53:50.694Z,8.08
2019-05-23T13:56:16.747Z,2.60
2019-05-23T13:58:41.978Z,1.52
2019-05-23T14:01:09.489Z,1.67
2019-05-23T14:03:35.527Z,2.67
2019-05-23T14:06:00.722Z,3.25
2019-05-23T14:08:26.444Z,1.65
2019-05-23T14:10:52.499Z,3.55
2019-05-23T14:13:17.599Z,2.20
2019-05-23T14:15:45.400Z,1.72
2019-05-23T14:18:16.197Z,4.87
2019-05-23T14:20:42.307Z,1.70
2019-05-23T14:23:18.085Z,1.12
2019-05-23T14:25:44.124Z,2.52
2019-05-23T14:28:10.618Z,3.00
2019-05-23T14:30:42.373Z,2.75
2019-05-23T14:33:12.350Z,2.85
2019-05-23T14:35:37.790Z,4.30
2019-05-23T14:38:05.103Z,2.05
2019-05-23T14:40:31.386Z,1.67
2019-05-23T14:43:05.203Z,1.22
2019-05-23T14:45:51.888Z,3.98
2019-05-23T14:48:29.511Z,2.55
2019-05-23T14:51:03.150Z,3.42
2019-05-23T14:53:31.239Z,1.20
2019-05-23T14:55:56.389Z,3.00
2019-05-23T14:58:21.617Z,1.32
2019-05-23T15:00:48.459Z,1.47
2019-05-23T15:03:13.570Z,1.27
2019-05-23T15:05:38.734Z,1.10
2019-05-23T15:08:03.856Z,1.52
2019-05-23T15:10:29.587Z,1.98
2019-05-23T15:12:55.123Z,1.80
2019-05-23T15:15:20.211Z,2.12
2019-05-23T15:17:45.586Z,2.15
2019-05-23T15:20:12.550Z,1.47
2019-05-23T15:22:37.913Z,1.90
2019-05-23T15:25:03.165Z,2.00
2019-05-23T15:27:32.941Z,0.90
2019-05-23T15:29:57.802Z,1.82
2019-05-23T15:32:22.898Z,3.25
2019-05-23T15:34:49.969Z,1.72
2019-05-23T15:37:15.759Z,2.85
2019-05-23T15:39:41.044Z,1.10
2019-05-23T15:42:08.164Z,4.03
2019-05-23T15:44:33.795Z,2.50
2019-05-23T15:46:59.466Z,1.95
2019-05-23T15:49:26.404Z,1.87
2019-05-23T15:52:05.664Z,2.52
2019-05-23T15:54:44.492Z,3.33
2019-05-23T15:57:18.427Z,4.62
2019-05-23T15:59:49.039Z,1.80
2019-05-23T16:02:18.601Z,1.00
2019-05-23T16:04:44.202Z,1.55
2019-05-23T16:07:10.722Z,3.12
2019-05-23T16:09:36.163Z,3.02
2019-05-23T16:12:01.607Z,1.50
2019-05-23T16:14:27.643Z,3.70
2019-05-23T16:16:56.468Z,1.20
2019-05-23T16:19:20.764Z,1.02
2019-05-23T16:21:45.894Z,1.17
2019-05-23T16:24:11.516Z,2.15
2019-05-23T16:26:36.572Z,1.17
2019-05-23T16:29:01.786Z,2.37
2019-05-23T16:31:26.912Z,1.42
2019-05-23T16:33:52.009Z,1.40
2019-05-23T16:36:17.248Z,10.40
2019-05-23T16:38:42.611Z,3.27
2019-05-23T16:41:11.198Z,2.60
2019-05-23T16:43:34.490Z,1.02
2019-05-23T16:45:59.846Z,3.52
2019-05-23T16:48:25.324Z,1.32
2019-05-23T16:50:50.706Z,3.60
2019-05-23T16:53:16.003Z,1.10
2019-05-23T16:56:02.054Z,1.02
2019-05-23T16:58:38.214Z,1.00
2019-05-23T17:01:34.461Z,1.37
2019-05-23T17:04:07.954Z,3.12
2019-05-23T17:06:47.594Z,2.05
2019-05-23T17:09:32.397Z,2.80
2019-05-23T17:12:19.666Z,0.98
2019-05-23T17:15:10.736Z,2.87
2019-05-23T17:18:01.233Z,0.88
2019-05-23T17:20:20.555Z,4.60
2019-05-23T17:22:56.562Z,1.87
2019-05-23T17:25:35.526Z,1.35
2019-05-23T17:28:05.534Z,4.00
2019-05-23T17:31:07.812Z,1.90
2019-05-23T17:33:36.875Z,1.05
2019-05-23T17:36:00.394Z,1.42
2019-05-23T17:38:25.762Z,0.82
2019-05-23T17:40:51.227Z,4.25
2019-05-23T17:43:17.431Z,2.45
2019-05-23T17:45:42.847Z,1.82
2019-05-23T17:48:08.426Z,1.10
2019-05-23T17:50:34.886Z,7.92
2019-05-23T17:53:00.328Z,2.17
2019-05-23T17:55:28.373Z,1.60
2019-05-23T17:57:56.702Z,3.92
2019-05-23T18:00:25.032Z,1.80
2019-05-23T18:02:50.219Z,1.40
2019-05-23T18:05:15.890Z,3.95
2019-05-23T18:07:42.192Z,2.45
2019-05-23T18:10:08.210Z,1.30
2019-05-23T18:12:33.983Z,2.93
2019-05-23T18:14:59.134Z,3.33
2019-05-23T18:17:25.448Z,2.27
2019-05-23T18:19:51.047Z,1.30
2019-05-23T18:22:17.225Z,1.50
2019-05-23T18:24:42.610Z,3.10
2019-05-23T18:27:09.122Z,4.00
2019-05-23T18:29:34.700Z,3.83
2019-05-23T18:32:00.627Z,3.23
2019-05-23T18:34:26.003Z,2.53
2019-05-23T18:36:52.244Z,3.60
2019-05-23T18:39:19.130Z,2.40
2019-05-23T18:41:44.218Z,2.43
2019-05-23T18:44:11.626Z,3.90
2019-05-23T18:46:41.476Z,2.80
2019-05-23T18:49:08.225Z,4.07
2019-05-23T18:51:34.073Z,2.43
2019-05-23T18:54:00.060Z,2.50
2019-05-23T18:56:26.622Z,3.33
2019-05-23T18:58:52.558Z,4.47
2019-05-23T19:01:19.951Z,2.10
2019-05-23T19:03:45.031Z,2.47
2019-05-23T19:06:10.235Z,2.10
2019-05-23T19:08:35.516Z,3.93
2019-05-23T19:11:00.831Z,3.17
2019-05-23T19:13:26.774Z,4.93
2019-05-23T19:15:52.331Z,3.87
2019-05-23T19:18:17.554Z,1.83
2019-05-23T19:20:42.910Z,2.63
2019-05-23T19:23:08.882Z,2.83
2019-05-23T19:25:34.922Z,4.27
2019-05-23T19:28:00.026Z,3.90
2019-05-23T19:30:25.351Z,4.27
2019-05-23T19:32:51.790Z,2.67
2019-05-23T19:35:17.014Z,3.20
2019-05-23T19:37:42.099Z,2.57
2019-05-23T19:40:08.314Z,2.80
2019-05-23T19:42:34.188Z,4.33
2019-05-23T19:45:00.274Z,4.43
2019-05-23T19:47:25.422Z,2.63
2019-05-23T19:49:50.518Z,2.67
2019-05-23T19:52:16.090Z,3.43
2019-05-23T19:54:41.216Z,2.70
2019-05-23T19:57:06.305Z,3.87
2019-05-23T19:59:31.503Z,3.93
2019-05-23T20:02:15.735Z,3.53
2019-05-23T20:04:44.263Z,8.53
2019-05-23T20:07:14.945Z,10.80
2019-05-23T20:09:37.526Z,12.03
2019-05-23T20:12:02.724Z,11.60
2019-05-23T20:14:27.834Z,13.83
2019-05-23T20:16:53.160Z,17.17
2019-05-23T20:19:19.294Z,5.17
2019-05-23T20:21:44.394Z,5.90
2019-05-23T20:24:09.625Z,3.00
2019-05-23T20:26:34.728Z,3.67
2019-05-23T20:29:03.170Z,4.00
2019-05-23T20:31:26.574Z,4.80
2019-05-23T20:33:52.571Z,3.80
2019-05-23T20:36:18.466Z,4.17
2019-05-23T20:38:44.278Z,5.37
2019-05-23T20:41:09.699Z,3.30
2019-05-23T20:43:34.779Z,7.37
2019-05-23T20:45:59.875Z,4.27
2019-05-23T20:48:25.948Z,5.50
2019-05-23T20:50:51.568Z,4.93
2019-05-23T20:53:18.238Z,3.73
2019-05-23T20:55:43.454Z,7.37
2019-05-23T20:58:09.818Z,5.10
2019-05-23T21:00:57.183Z,3.37
2019-05-23T21:03:26.674Z,5.03
2019-05-23T21:05:51.960Z,3.97
2019-05-23T21:08:17.050Z,3.50
2019-05-23T21:10:49.266Z,4.97
2019-05-23T21:13:14.540Z,6.10
2019-05-23T21:15:40.956Z,3.97
2019-05-23T21:18:06.186Z,3.67
2019-05-23T21:20:31.319Z,4.13
2019-05-23T21:22:56.408Z,3.30
2019-05-23T21:25:21.585Z,4.30
2019-05-23T21:27:46.714Z,3.47
2019-05-23T21:30:11.890Z,7.07
2019-05-23T21:32:37.011Z,5.17
2019-05-23T21:35:02.163Z,4.93
2019-05-23T21:37:27.374Z,6.23
2019-05-23T21:39:52.834Z,6.17
2019-05-23T21:42:17.918Z,5.00
2019-05-23T21:44:43.059Z,4.97
2019-05-23T21:47:08.727Z,6.73
2019-05-23T21:49:33.876Z,7.70
2019-05-23T21:51:59.022Z,5.37
2019-05-23T21:54:25.182Z,8.00
2019-05-23T21:56:50.503Z,5.70
2019-05-23T21:59:15.914Z,8.40
2019-05-23T22:02:04.309Z,11.70
2019-05-23T22:04:39.830Z,6.53
2019-05-23T22:07:06.798Z,6.43
2019-05-23T22:09:32.195Z,7.07
2019-05-23T22:11:57.761Z,7.43
2019-05-23T22:14:23.713Z,6.80
2019-05-23T22:16:49.854Z,5.90
2019-05-23T22:19:17.490Z,8.10
2019-05-23T22:21:42.639Z,8.93
2019-05-23T22:24:08.215Z,13.30
2019-05-23T22:26:34.511Z,7.07
2019-05-23T22:28:59.828Z,8.63
2019-05-23T22:31:26.008Z,8.93
2019-05-23T22:33:56.714Z,10.20
2019-05-23T22:36:22.163Z,9.93
2019-05-23T22:38:47.266Z,7.70
2019-05-23T22:41:12.404Z,6.70
2019-05-23T22:43:37.494Z,6.53
2019-05-23T22:46:02.667Z,7.10
2019-05-23T22:48:27.780Z,8.57
2019-05-23T22:50:52.866Z,8.73
2019-05-23T22:53:18.060Z,5.57
2019-05-23T22:55:43.438Z,8.13
2019-05-23T22:58:08.653Z,7.47
2019-05-23T23:00:35.391Z,10.17
2019-05-23T23:03:00.654Z,8.07
2019-05-23T23:05:25.866Z,8.10
2019-05-23T23:07:50.962Z,6.37
2019-05-23T23:10:16.292Z,8.03
2019-05-23T23:12:41.459Z,6.23
2019-05-23T23:15:07.231Z,7.10
2019-05-23T23:17:32.439Z,9.60
2019-05-23T23:19:57.517Z,6.07
2019-05-23T23:22:22.637Z,5.83
2019-05-23T23:24:47.747Z,11.20
2019-05-23T23:27:12.956Z,9.33
2019-05-23T23:29:38.354Z,8.47
2019-05-23T23:32:04.066Z,11.20
2019-05-23T23:34:29.364Z,7.53
2019-05-23T23:36:54.560Z,10.07
2019-05-23T23:39:20.367Z,8.23
2019-05-23T23:41:45.461Z,6.80
2019-05-23T23:44:11.613Z,7.90
2019-05-23T23:47:01.321Z,9.37
2019-05-23T23:49:44.005Z,9.67
2019-05-23T23:52:26.793Z,7.70
2019-05-23T23:55:09.643Z,8.17
2019-05-23T23:57:52.268Z,8.57
